Venice, Italy

5:12 AM CEST on March 29, 2015 (GMT +0200)
Venezia | | Change Station
CLOSE
Current Station
Personal Weather Station
Location: Dese, Venezia
Elevation: 14 ft
Nearby Weather Stations

Elev 14 ft 45.53 °N, 12.31 °E | Updated 1 minute ago

Clear
Clear
47.8 °F
Feels Like 48 °F
N
0.0
Wind Variable Wind from SW
Gusts 0.0 mph

Today
High -- | Low -- °F
--% Chance of Precip.
Yesterday
High -- | Low -- °F
Precip. -- in
6:57 AM 7:34 PM
Waxing Gibbous, 67% visible
Pressure 29.98 in
Visibility 5.0 miles
Clouds
Windchill 48 °F
Dew Point 44 °F
Humidity 88%
Rainfall 0.00 in
Snow Depth Not available.
UV Not available.
Pollen Not available.
Air Quality Not available.
Flu Activity Not available.
METAR LIPS 290255Z 05005KT 8000 NSC 06/05 Q1015 RMK SCT SCT200 VIS MIN 8000 WIND THR26 /////KT WIND THR08 04005KT BLU

More Conditions Fewer Conditions

Pressure 29.98 in
Visibility 5.0 miles
Clouds
Windchill 48 °F
Dew Point 44 °F
Humidity 88%
Rainfall 0.00 in
Snow Depth Not available.
UV Not available.
Pollen Not available.
Air Quality Not available.
Flu Activity Not available.
METAR LIPS 290255Z 05005KT 8000 NSC 06/05 Q1015 RMK SCT SCT200 VIS MIN 8000 WIND THR26 /////KT WIND THR08 04005KT BLU

More Conditions Fewer Conditions

10-Day Weather Forecast

Almanac

Astronomy

Mar. 29, 2015 Rise Set
Actual Time
Civil Twilight
Nautical Twilight
Astronomical Twilight
Moon
Length of Visible Light
Length of Day
Tomorrow will be .
, % of the Moon is Illuminated

Today's Extremes

Country Highs Country Lows

Community

WunderPhotos

Upload Photos

1,809,174 photos uploaded!

WunderBlogs® & News

Nearby

Air Quality

  Air Quality AQ Index Pollutant
Not available.

Snow Depth

Station Depth Elevation

Earthquake Activity

City Distance Mag. Time & Date
Minimum magnitude displayed is 2.5.

Coastal Water Temperatures

Place Temperature

Stations

Nearby Weather Stations

Station Location Temp. Windchill Dew Point Humidity Wind Precip. Elev Updated Type